Time;durP1;ratioP1;P1;durP2;ratioP2;P2;SDS_P1;SDS_P2;PMS_P1;PMS_P2;Temp;Humidity;BMP_temperature;BMP_pressure;BME280_temperature;BME280_humidity;BME280_pressure;Samples;Min_cycle;Max_cycle;Signal;HPM_P1;HPM_P2
2022/04/16 00:02:08;;;;;;;1.50;1.27;;;;;;;19.73;36.75;96744.22;5114636;28;20052;-27
2022/04/16 00:04:33;;;;;;;2.22;1.30;;;;;;;19.80;37.17;96738.28;5114480;28;20034;-27
2022/04/16 00:07:00;;;;;;;2.60;1.50;;;;;;;19.82;36.42;96733.06;5114516;28;20058;-27
2022/04/16 00:09:26;;;;;;;2.50;1.50;;;;;;;19.77;36.67;96730.25;5114877;28;20508;-27
2022/04/16 00:11:52;;;;;;;1.50;1.10;;;;;;;19.80;36.86;96721.03;5095801;28;20073;-27
2022/04/16 00:14:19;;;;;;;1.90;1.30;;;;;;;19.73;36.83;96716.69;5114645;28;20024;-27
2022/04/16 00:16:46;;;;;;;2.55;1.40;;;;;;;19.76;36.46;96720.50;5115088;28;20031;-27
2022/04/16 00:19:11;;;;;;;2.25;1.02;;;;;;;19.70;36.02;96718.41;5114589;28;20053;-28
2022/04/16 00:21:37;;;;;;;1.55;1.25;;;;;;;19.79;36.25;96711.25;5115305;28;20459;-27
2022/04/16 00:24:03;;;;;;;1.52;1.10;;;;;;;19.63;36.09;96713.31;5116748;28;20098;-27
2022/04/16 00:26:29;;;;;;;4.30;1.20;;;;;;;19.69;35.72;96714.13;5116828;28;20024;-29
2022/04/16 00:28:54;;;;;;;2.72;1.10;;;;;;;19.69;35.06;96713.38;5116742;28;20054;-27
2022/04/16 00:31:21;;;;;;;1.75;1.10;;;;;;;19.69;35.51;96707.88;5098656;28;20024;-27
2022/04/16 00:33:47;;;;;;;1.92;1.30;;;;;;;19.76;35.18;96706.72;5116680;28;20027;-27
2022/04/16 00:36:16;;;;;;;2.50;1.25;;;;;;;19.73;34.64;96697.44;5116856;28;20031;-27
2022/04/16 00:38:42;;;;;;;2.40;1.60;;;;;;;19.65;35.00;96699.84;5116722;28;20108;-27
2022/04/16 00:41:07;;;;;;;2.08;1.00;;;;;;;19.67;35.15;96696.59;5116546;28;20060;-27
2022/04/16 00:43:34;;;;;;;1.48;1.00;;;;;;;19.66;34.74;96686.81;5116603;28;20108;-26
2022/04/16 00:46:00;;;;;;;1.75;1.25;;;;;;;19.61;34.79;96695.78;5115333;28;20024;-27
2022/04/16 00:48:26;;;;;;;2.00;1.20;;;;;;;19.64;34.89;96689.31;5116421;28;20042;-27
2022/04/16 00:50:54;;;;;;;1.65;1.13;;;;;;;19.64;34.96;96687.31;5116720;28;20051;-27
2022/04/16 00:53:20;;;;;;;1.40;1.00;;;;;;;19.63;34.68;96682.28;5098214;28;20106;-27
2022/04/16 00:55:46;;;;;;;1.83;1.25;;;;;;;19.65;34.26;96680.59;5116321;28;20032;-27
2022/04/16 00:58:12;;;;;;;2.08;0.90;;;;;;;19.67;33.84;96688.34;5116212;28;20038;-28
2022/04/16 01:00:38;;;;;;;1.60;0.98;;;;;;;19.65;34.05;96675.09;5116227;28;20083;-28
2022/04/16 01:03:05;;;;;;;2.13;1.10;;;;;;;19.70;34.81;96674.38;5115898;28;20512;-27
2022/04/16 01:05:30;;;;;;;1.83;1.00;;;;;;;19.69;33.99;96670.13;5115691;28;20081;-27
2022/04/16 01:07:59;;;;;;;2.05;1.00;;;;;;;19.62;34.56;96670.53;5097865;28;20425;-27
2022/04/16 01:10:29;;;;;;;1.85;1.08;;;;;;;19.58;33.97;96667.22;5097929;28;20020;-27
2022/04/16 01:12:56;;;;;;;1.10;0.80;;;;;;;19.59;33.68;96665.22;5115975;28;20022;-27
2022/04/16 01:15:23;;;;;;;1.65;1.10;;;;;;;19.57;33.54;96660.19;5116045;28;20102;-27
2022/04/16 01:17:50;;;;;;;1.63;0.90;;;;;;;19.55;33.74;96659.16;5115995;28;20115;-27
2022/04/16 01:20:16;;;;;;;1.23;0.90;;;;;;;19.60;33.13;96656.50;5115949;28;20383;-27
2022/04/16 01:22:50;;;;;;;1.98;1.10;;;;;;;19.57;33.44;96657.44;5115853;28;20030;-27
2022/04/16 01:25:16;;;;;;;1.33;0.90;;;;;;;19.60;33.31;96651.00;5115810;28;20027;-27
2022/04/16 01:27:48;;;;;;;1.52;0.98;;;;;;;19.60;33.19;96644.72;5116015;28;20019;-27
2022/04/16 01:30:17;;;;;;;1.75;1.33;;;;;;;19.55;32.83;96642.66;5115717;28;20495;-27
2022/04/16 01:32:43;;;;;;;1.48;0.90;;;;;;;19.55;33.51;96640.66;5115577;28;20443;-27
2022/04/16 01:35:10;;;;;;;2.10;1.08;;;;;;;19.50;33.15;96633.13;5115762;28;20047;-27
2022/04/16 01:37:37;;;;;;;1.35;1.00;;;;;;;19.51;32.00;96637.38;5115736;28;20039;-26
2022/04/16 01:40:05;;;;;;;1.92;1.02;;;;;;;19.54;32.57;96632.88;5115243;28;20080;-27
2022/04/16 01:42:32;;;;;;;1.00;0.80;;;;;;;19.54;32.70;96630.91;5115267;28;20486;-28
2022/04/16 01:45:05;;;;;;;2.38;1.00;;;;;;;19.51;32.46;96626.38;5097078;28;20383;-27
2022/04/16 01:47:36;;;;;;;1.20;0.82;;;;;;;19.60;32.82;96628.22;5115419;28;20032;-27
2022/04/16 01:50:03;;;;;;;2.45;1.00;;;;;;;19.46;32.47;96620.75;5115234;28;20023;-27
2022/04/16 01:52:29;;;;;;;1.40;1.02;;;;;;;19.53;32.73;96615.66;5115147;28;20034;-27
2022/04/16 01:54:54;;;;;;;1.13;0.80;;;;;;;19.42;32.24;96625.69;5115190;28;20023;-27
2022/04/16 01:57:20;;;;;;;1.58;0.93;;;;;;;19.38;32.59;96612.16;5115240;28;20053;-27
2022/04/16 01:59:48;;;;;;;1.45;1.23;;;;;;;19.40;32.72;96619.94;5115336;28;20016;-27
2022/04/16 02:02:15;;;;;;;2.03;1.08;;;;;;;19.43;31.93;96613.47;5114799;28;20055;-27
2022/04/16 02:04:41;;;;;;;1.25;0.90;;;;;;;19.44;32.22;96615.72;5096735;28;20024;-27
2022/04/16 02:07:07;;;;;;;1.75;1.00;;;;;;;19.37;31.82;96611.41;5114960;28;20493;-27
2022/04/16 02:09:33;;;;;;;1.30;0.98;;;;;;;19.41;32.60;96610.47;5114809;28;20024;-27
2022/04/16 02:11:59;;;;;;;0.90;0.80;;;;;;;19.39;31.63;96613.69;5114779;28;20440;-27
2022/04/16 02:14:25;;;;;;;0.93;0.82;;;;;;;19.36;31.89;96609.91;5114846;28;20059;-27
2022/04/16 02:16:50;;;;;;;1.52;1.00;;;;;;;19.36;31.63;96611.88;5114925;28;20072;-27
2022/04/16 02:19:16;;;;;;;1.77;0.80;;;;;;;19.31;31.94;96605.06;5114766;28;20029;-27
2022/04/16 02:21:46;;;;;;;2.20;1.08;;;;;;;19.43;32.09;96605.97;5099029;28;20028;-27
2022/04/16 02:24:13;;;;;;;1.70;1.10;;;;;;;19.35;31.89;96605.63;5092172;28;20060;-27
2022/04/16 02:26:42;;;;;;;1.20;0.90;;;;;;;19.34;31.27;96604.13;5075851;28;20113;-27
2022/04/16 02:29:08;;;;;;;1.92;0.90;;;;;;;19.28;31.54;96600.53;5094177;28;20019;-27
2022/04/16 02:31:36;;;;;;;1.90;0.95;;;;;;;19.31;31.43;96594.06;5094286;28;20031;-26
2022/04/16 02:34:02;;;;;;;2.15;1.00;;;;;;;19.29;31.11;96593.78;5094022;28;20020;-27
2022/04/16 02:36:28;;;;;;;1.55;1.02;;;;;;;19.33;31.03;96593.59;5094005;28;20028;-27
2022/04/16 02:38:54;;;;;;;1.35;0.90;;;;;;;19.31;30.82;96591.31;5093904;28;20020;-27
2022/04/16 02:41:39;;;;;;;2.58;1.02;;;;;;;19.21;31.00;96589.94;5075907;28;20448;-27
2022/04/16 02:44:05;;;;;;;1.38;0.90;;;;;;;19.28;31.46;96592.31;5091188;28;20555;-27
2022/04/16 02:49:15;;;;;;;1.40;0.93;;;;;;;19.28;30.50;96592.31;5093867;28;20035;-27
2022/04/16 02:51:41;;;;;;;1.55;0.77;;;;;;;19.24;30.71;96588.22;5093806;28;20065;-27
2022/04/16 02:54:06;;;;;;;1.17;0.80;;;;;;;19.22;30.45;96593.44;5075771;28;20016;-27
2022/04/16 02:56:32;;;;;;;0.90;0.70;;;;;;;19.25;30.61;96598.75;5075730;28;20115;-27
2022/04/16 02:58:57;;;;;;;1.40;0.85;;;;;;;19.26;31.29;96583.78;5093651;28;20438;-27
2022/04/16 03:01:24;;;;;;;2.28;0.77;;;;;;;19.30;30.91;96594.53;5093461;28;20048;-27
2022/04/16 03:03:50;;;;;;;1.40;0.90;;;;;;;19.24;31.01;96583.47;5093275;28;20544;-27
2022/04/16 03:06:16;;;;;;;1.90;0.80;;;;;;;19.23;30.14;96590.22;5093644;28;20115;-27
2022/04/16 03:08:42;;;;;;;0.90;0.75;;;;;;;19.26;30.25;96588.50;5093615;28;20035;-27
2022/04/16 03:11:07;;;;;;;1.17;0.82;;;;;;;19.22;29.92;96588.69;5093163;28;20028;-27
2022/04/16 03:13:36;;;;;;;1.65;0.90;;;;;;;19.24;30.51;96588.97;5093684;28;20012;-27
2022/04/16 03:18:46;;;;;;;1.40;1.02;;;;;;;19.18;30.40;96582.63;5093756;28;20042;-27
2022/04/16 03:21:12;;;;;;;1.98;1.25;;;;;;;19.27;30.66;96584.53;5075582;28;20119;-27
2022/04/16 03:23:39;;;;;;;1.23;0.82;;;;;;;19.22;30.06;96587.94;5093189;28;20020;-27
2022/04/16 03:26:05;;;;;;;2.05;0.85;;;;;;;19.19;30.36;96584.16;5075200;28;20024;-27
2022/04/16 03:28:32;;;;;;;1.55;1.00;;;;;;;19.16;29.81;96587.13;5093257;28;20162;-27
2022/04/16 03:30:58;;;;;;;1.77;0.88;;;;;;;19.13;30.23;96585.34;5093359;28;20027;-27
2022/04/16 03:33:23;;;;;;;0.95;0.80;;;;;;;19.18;29.89;96587.38;5093303;28;20226;-27
2022/04/16 03:35:51;;;;;;;1.05;0.82;;;;;;;19.17;30.14;96591.38;5093550;28;20020;-27
2022/04/16 03:38:17;;;;;;;1.60;1.20;;;;;;;19.16;29.92;96587.13;5093662;28;20099;-27
2022/04/16 03:40:44;;;;;;;1.83;1.00;;;;;;;19.18;29.93;96585.38;5093431;28;20028;-27
2022/04/16 03:43:10;;;;;;;1.20;1.00;;;;;;;18.95;29.83;96584.31;5093196;28;20020;-27
2022/04/16 03:45:37;;;;;;;1.23;0.75;;;;;;;19.11;29.59;96587.78;5093194;28;20526;-27
2022/04/16 03:48:04;;;;;;;2.17;1.02;;;;;;;19.12;29.86;96584.56;5093267;28;20081;-27
2022/04/16 03:50:31;;;;;;;0.70;0.60;;;;;;;19.14;29.63;96582.09;5093219;28;20530;-27
2022/04/16 03:52:58;;;;;;;2.35;0.80;;;;;;;19.12;29.35;96575.56;5092999;28;20070;-27
2022/04/16 04:01:00;;;;;;;1.27;0.80;;;;;;;19.22;29.67;96594.19;5093045;28;20364;-27
2022/04/16 04:03:26;;;;;;;1.38;0.82;;;;;;;19.17;28.96;96594.13;5093040;28;20392;-27
2022/04/16 04:05:54;;;;;;;1.25;0.70;;;;;;;19.11;29.40;96587.78;5093325;28;20038;-27
2022/04/16 04:08:21;;;;;;;2.25;0.88;;;;;;;19.07;28.96;96592.72;5092932;28;20030;-27
2022/04/16 04:10:47;;;;;;;0.93;0.70;;;;;;;19.12;28.53;96590.06;5093137;28;20028;-27
2022/04/16 04:13:16;;;;;;;1.25;0.70;;;;;;;19.09;28.40;96595.75;5092950;28;20020;-27
2022/04/16 04:15:42;;;;;;;1.02;0.73;;;;;;;19.11;28.64;96598.78;5074832;28;20086;-27
2022/04/16 04:18:07;;;;;;;1.05;0.80;;;;;;;19.04;29.50;96596.47;5092845;28;20039;-27
2022/04/16 04:20:35;;;;;;;0.88;0.60;;;;;;;19.00;28.60;96600.16;5093111;28;20024;-27
2022/04/16 04:23:02;;;;;;;1.52;0.93;;;;;;;19.05;28.21;96601.44;5095840;28;20020;-27
2022/04/16 04:25:27;;;;;;;2.35;0.80;;;;;;;19.05;28.07;96600.69;5096573;28;20107;-27
2022/04/16 04:27:53;;;;;;;0.80;0.60;;;;;;;19.13;28.19;96601.81;5096555;28;20115;-27
2022/04/16 04:30:20;;;;;;;1.13;0.70;;;;;;;19.09;28.12;96604.75;5096554;28;20061;-27
2022/04/16 04:32:47;;;;;;;1.00;0.70;;;;;;;19.06;28.47;96596.72;5096484;28;20016;-27
2022/04/16 04:35:14;;;;;;;1.98;0.80;;;;;;;18.94;29.05;96596.56;5096422;28;20027;-27
2022/04/16 04:37:39;;;;;;;0.75;0.60;;;;;;;18.98;28.17;96610.84;5095975;28;20384;-27
2022/04/16 04:40:05;;;;;;;1.90;0.70;;;;;;;19.01;28.13;96604.41;5096132;28;20028;-27
2022/04/16 04:42:33;;;;;;;2.28;1.10;;;;;;;19.03;27.96;96603.94;5096243;28;20024;-27
2022/04/16 04:45:07;;;;;;;0.93;0.60;;;;;;;19.02;27.73;96596.94;5096196;28;20174;-27
2022/04/16 04:47:32;;;;;;;2.53;0.63;;;;;;;18.98;27.27;96599.88;5096109;28;20030;-27
2022/04/16 04:49:58;;;;;;;0.73;0.60;;;;;;;19.04;27.87;96599.22;5096004;28;20150;-27
2022/04/16 04:52:29;;;;;;;1.55;0.70;;;;;;;19.00;28.31;96600.16;5096179;28;20081;-27
2022/04/16 04:54:58;;;;;;;0.93;0.68;;;;;;;18.96;28.29;96599.59;5096163;28;20020;-27
2022/04/16 04:57:23;;;;;;;1.35;0.68;;;;;;;18.94;27.34;96590.28;5095835;28;20039;-27
2022/04/16 04:59:49;;;;;;;3.08;0.73;;;;;;;19.02;28.32;96594.19;5096071;28;20015;-27
2022/04/16 05:02:16;;;;;;;1.95;1.13;;;;;;;18.97;27.39;96592.84;5095448;28;20048;-27
2022/04/16 05:04:42;;;;;;;1.17;0.80;;;;;;;18.95;28.05;96598.06;5095832;28;20491;-27
2022/04/16 05:07:08;;;;;;;0.98;0.70;;;;;;;18.97;27.41;96592.84;5095716;28;20028;-27
2022/04/16 05:09:34;;;;;;;1.55;0.90;;;;;;;18.90;28.47;96590.50;5095958;28;20039;-27
2022/04/16 05:11:59;;;;;;;2.85;1.48;;;;;;;18.85;28.28;96587.66;5095680;28;20028;-27
2022/04/16 05:14:25;;;;;;;2.72;0.70;;;;;;;18.94;27.86;96579.31;5095568;28;20112;-27
2022/04/16 05:16:51;;;;;;;1.38;0.75;;;;;;;18.92;27.46;96590.78;5095768;28;20024;-27
2022/04/16 05:19:16;;;;;;;2.08;0.70;;;;;;;18.97;28.00;96586.59;5095579;28;20031;-27
2022/04/16 05:21:44;;;;;;;2.50;0.70;;;;;;;18.97;27.78;96586.59;5095457;28;20578;-27
2022/04/16 05:24:10;;;;;;;1.15;0.80;;;;;;;18.96;28.42;96583.09;5095352;28;20020;-27
2022/04/16 05:26:38;;;;;;;3.70;0.90;;;;;;;18.97;27.81;96592.09;5095480;28;20016;-27
2022/04/16 05:29:04;;;;;;;2.00;0.73;;;;;;;18.89;27.81;96594.50;5095255;28;20137;-27
2022/04/16 05:31:30;;;;;;;3.38;0.60;;;;;;;18.84;28.42;96595.16;5095196;28;20024;-27
2022/04/16 05:36:40;;;;;;;1.25;0.80;;;;;;;18.96;28.08;96599.59;5095552;28;20384;-27
2022/04/16 05:39:06;;;;;;;1.20;0.70;;;;;;;18.85;28.29;96590.41;5095123;28;20016;-27
2022/04/16 05:41:33;;;;;;;1.90;0.90;;;;;;;18.94;28.19;96582.81;5099628;28;20484;-27
2022/04/16 05:43:59;;;;;;;1.25;0.70;;;;;;;18.85;27.80;96584.94;5099218;28;20020;-27
2022/04/16 05:46:25;;;;;;;0.80;0.70;;;;;;;18.94;28.17;96596.56;5093291;28;20041;-27
2022/04/16 05:48:50;;;;;;;1.00;0.65;;;;;;;18.87;28.20;96591.47;5113426;28;20101;-27
2022/04/16 05:51:17;;;;;;;3.25;1.10;;;;;;;18.87;27.75;96587.97;5113372;28;20032;-27
2022/04/16 05:53:44;;;;;;;1.00;0.90;;;;;;;18.71;28.47;96589.22;5112968;28;20031;-27
2022/04/16 05:56:10;;;;;;;1.55;0.93;;;;;;;18.83;28.14;96584.63;5113376;28;20027;-27
2022/04/16 05:58:36;;;;;;;1.63;0.98;;;;;;;18.83;28.18;96588.16;5112792;28;20102;-27
2022/04/16 06:01:03;;;;;;;1.40;1.00;;;;;;;18.81;28.42;96587.09;5092573;28;20028;-27
2022/04/16 06:03:30;;;;;;;1.30;1.10;;;;;;;18.67;28.94;96583.16;5074487;28;20443;-27
2022/04/16 06:05:57;;;;;;;2.30;1.23;;;;;;;18.77;28.40;96579.06;5090300;28;20373;-27
2022/04/16 06:08:22;;;;;;;2.45;1.30;;;;;;;18.62;28.94;96578.34;5092441;28;20031;-27
2022/04/16 06:10:48;;;;;;;1.67;0.95;;;;;;;18.65;28.80;96580.13;5092521;28;20019;-27
2022/04/16 06:13:14;;;;;;;1.63;1.10;;;;;;;18.72;28.82;96579.75;5092190;28;20027;-27
2022/04/16 06:15:41;;;;;;;2.00;0.98;;;;;;;18.90;28.64;96587.78;5074026;28;20037;-27
2022/04/16 06:18:08;;;;;;;2.15;0.80;;;;;;;18.87;28.44;96580.47;5092120;28;20049;-27
2022/04/16 06:20:33;;;;;;;2.30;1.05;;;;;;;18.90;28.67;96590.50;5092400;28;20032;-27
2022/04/16 06:23:00;;;;;;;1.23;0.85;;;;;;;18.83;28.80;96587.38;5057053;28;20032;-27
2022/04/16 06:25:25;;;;;;;2.53;1.20;;;;;;;18.81;28.71;96587.84;5092329;28;20034;-27
2022/04/16 06:27:51;;;;;;;2.08;1.23;;;;;;;18.69;29.22;96575.19;5092300;28;20638;-27
2022/04/16 06:30:16;;;;;;;1.63;1.17;;;;;;;18.83;29.23;96573.66;5091973;28;20784;-27
2022/04/16 06:32:42;;;;;;;2.35;1.30;;;;;;;18.88;29.24;96578.47;5109525;28;20456;-27
2022/04/16 06:35:08;;;;;;;2.80;1.00;;;;;;;18.90;29.46;96576.00;5095939;28;20042;-27
2022/04/16 06:37:34;;;;;;;1.42;1.10;;;;;;;18.72;29.63;96574.25;5114626;28;20016;-27
2022/04/16 06:40:02;;;;;;;2.65;1.20;;;;;;;18.76;29.70;96569.31;5114338;28;20102;-27
2022/04/16 06:42:28;;;;;;;1.88;1.30;;;;;;;18.68;29.64;96581.91;5114161;28;20019;-27
2022/04/16 06:44:54;;;;;;;1.65;1.30;;;;;;;18.64;29.57;96579.38;5113680;28;20455;-27
2022/04/16 06:47:19;;;;;;;1.42;1.15;;;;;;;18.50;30.38;96573.88;5114147;28;20031;-27
2022/04/16 06:49:46;;;;;;;3.05;1.35;;;;;;;18.71;30.15;96577.47;5099300;28;20070;-27
2022/04/16 06:52:12;;;;;;;1.85;1.20;;;;;;;18.58;29.85;96570.28;5112401;28;20476;-27
2022/04/16 06:54:38;;;;;;;1.95;1.00;;;;;;;18.43;29.26;96568.75;5104311;28;20024;-27
2022/04/16 06:57:05;;;;;;;2.05;1.40;;;;;;;18.51;29.87;96567.16;5091748;28;20048;-27
2022/04/16 06:59:30;;;;;;;2.45;1.20;;;;;;;18.63;29.99;96566.13;5073613;28;20024;-26
2022/04/16 07:01:56;;;;;;;1.58;0.93;;;;;;;18.73;30.00;96564.00;5090992;28;20070;-27
2022/04/16 07:04:21;;;;;;;2.15;1.20;;;;;;;18.04;29.29;96563.38;5091738;28;20028;-27
2022/04/16 07:06:48;;;;;;;2.42;1.20;;;;;;;18.33;30.22;96570.09;5097840;28;20055;-27
2022/04/16 07:09:13;;;;;;;1.88;1.00;;;;;;;18.57;30.40;96571.47;5111662;28;20043;-27
2022/04/16 07:11:39;;;;;;;4.32;1.50;;;;;;;18.50;29.61;96574.63;5108457;28;20023;-27
2022/04/16 07:14:04;;;;;;;1.70;1.10;;;;;;;18.64;30.19;96584.13;5091254;28;20073;-27
2022/04/16 07:16:30;;;;;;;2.15;1.52;;;;;;;18.65;30.24;96580.13;5091079;28;20028;-27
2022/04/16 07:18:55;;;;;;;2.05;1.00;;;;;;;18.52;30.09;96582.41;5091631;28;20036;-27
2022/04/16 07:21:21;;;;;;;1.40;1.10;;;;;;;18.64;30.45;96573.13;5091322;28;20472;-27
2022/04/16 07:23:46;;;;;;;1.60;1.10;;;;;;;18.61;30.50;96574.06;5089113;28;20030;-27
2022/04/16 07:26:13;;;;;;;2.53;1.00;;;;;;;18.80;30.43;96572.59;5091464;28;20028;-27
2022/04/16 07:28:40;;;;;;;3.15;1.15;;;;;;;18.38;29.73;96577.66;5091340;28;20354;-27
2022/04/16 07:31:05;;;;;;;1.67;1.00;;;;;;;18.61;30.54;96574.84;5091176;28;20067;-27
2022/04/16 07:33:31;;;;;;;3.35;1.55;;;;;;;18.63;30.26;96572.38;5090934;28;20044;-27
2022/04/16 07:35:57;;;;;;;1.83;1.10;;;;;;;18.56;30.05;96575.47;5091071;28;20027;-27
2022/04/16 07:38:22;;;;;;;1.85;0.90;;;;;;;18.52;30.21;96576.91;5091188;28;20026;-27
2022/04/16 07:40:49;;;;;;;4.07;1.30;;;;;;;18.46;31.67;96576.03;5091108;28;20036;-27
2022/04/16 07:43:18;;;;;;;2.97;1.52;;;;;;;18.71;31.38;96577.47;5098244;28;20023;-27
2022/04/16 07:45:43;;;;;;;2.13;1.00;;;;;;;18.72;31.28;96582.47;5111418;28;20028;-27
2022/04/16 07:48:09;;;;;;;2.42;1.10;;;;;;;18.78;31.65;96577.84;5111423;28;20023;-27
2022/04/16 07:50:35;;;;;;;1.48;0.98;;;;;;;18.90;30.80;96584.25;5112544;28;20084;-27
2022/04/16 07:53:00;;;;;;;1.25;0.80;;;;;;;18.60;30.36;96575.31;5112465;28;20016;-27
2022/04/16 07:55:28;;;;;;;1.83;1.10;;;;;;;18.61;30.93;96576.81;5075367;28;20052;-27
2022/04/16 07:57:54;;;;;;;2.55;1.10;;;;;;;18.75;32.01;96573.28;5096750;28;20032;-27
2022/04/16 08:00:21;;;;;;;3.40;1.42;;;;;;;18.51;29.73;96581.63;5096977;28;20471;-27
2022/04/16 08:02:46;;;;;;;2.58;1.10;;;;;;;18.47;31.36;96566.56;5076667;28;20040;-27
2022/04/16 08:05:12;;;;;;;2.13;1.10;;;;;;;18.70;31.53;96564.97;5077036;28;20039;-27
2022/04/16 08:07:37;;;;;;;1.90;1.20;;;;;;;18.93;31.94;96564.81;5096735;28;20016;-27
2022/04/16 08:10:04;;;;;;;1.55;1.00;;;;;;;18.61;31.08;96568.59;5096770;28;20020;-27
2022/04/16 08:12:29;;;;;;;2.92;1.30;;;;;;;18.75;31.34;96573.28;5096981;28;20020;-27
2022/04/16 08:14:55;;;;;;;1.80;1.20;;;;;;;18.95;31.72;96569.81;5096966;28;20024;-27
2022/04/16 08:17:21;;;;;;;1.77;1.10;;;;;;;18.94;31.61;96568.31;5096633;28;20085;-27
2022/04/16 08:19:47;;;;;;;1.20;1.05;;;;;;;19.01;31.85;96568.69;5096822;28;20023;-27
2022/04/16 08:22:18;;;;;;;1.20;0.90;;;;;;;18.94;31.64;96562.81;5096494;28;20484;-27
2022/04/16 08:27:34;;;;;;;1.90;1.00;;;;;;;18.87;32.35;96561.22;5097088;28;20541;-27
2022/04/16 08:30:00;;;;;;;3.70;1.30;;;;;;;18.98;31.92;96569.63;5096553;28;20032;-27
2022/04/16 08:32:26;;;;;;;2.78;1.45;;;;;;;19.02;31.99;96570.19;5096471;28;20051;-27
2022/04/16 08:34:52;;;;;;;5.38;1.30;;;;;;;19.04;32.19;96569.69;5095769;28;20103;-27
2022/04/16 08:37:49;;;;;;;3.33;1.63;;;;;;;19.04;32.10;96571.72;5096207;28;20028;-27
2022/04/16 08:40:20;;;;;;;1.67;1.05;;;;;;;19.07;32.09;96571.50;5095666;28;20063;-27
2022/04/16 08:42:48;;;;;;;2.63;1.10;;;;;;;19.06;32.38;96582.97;5096112;28;20024;-27
2022/04/16 08:45:14;;;;;;;2.50;1.10;;;;;;;19.07;32.29;96578.97;5095596;28;20023;-27
2022/04/16 08:47:41;;;;;;;1.52;0.93;;;;;;;19.10;32.46;96561.53;5095511;28;20035;-27
2022/04/16 08:50:09;;;;;;;3.42;1.10;;;;;;;19.06;32.12;96561.72;5095611;28;20024;-27
2022/04/16 08:53:24;;;;;;;1.02;0.88;;;;;;;19.06;32.32;96552.72;5095765;28;20016;-27
2022/04/16 08:56:18;;;;;;;1.45;1.02;;;;;;;19.04;32.11;96555.94;5095402;28;20024;-27
2022/04/16 08:59:05;;;;;;;2.90;1.30;;;;;;;19.09;32.36;96558.03;5095437;28;20027;-27
2022/04/16 09:01:32;;;;;;;1.40;1.23;;;;;;;19.10;31.99;96558.78;4973993;28;20500;-27
2022/04/16 09:15:02;;;;;;;2.00;1.23;;;;;;;19.14;32.14;96553.84;5094765;28;20121;-27
2022/04/16 09:34:23;;;;;;;1.75;1.00;;;;;;;19.29;31.76;96543.53;5100697;28;20058;-27
2022/04/16 09:37:24;;;;;;;2.58;1.20;;;;;;;19.25;32.01;96554.00;5092869;28;20122;-27
2022/04/16 09:39:50;;;;;;;3.45;1.30;;;;;;;19.26;31.74;96548.03;5010302;28;20505;-27
2022/04/16 10:32:52;;;;;;;2.83;1.90;;;;;;;19.58;32.00;96501.41;4688106;28;20054;-26
2022/04/16 10:35:18;;;;;;;2.30;1.60;;;;;;;19.57;32.29;96503.41;5092509;28;20035;-26
2022/04/16 10:58:09;;;;;;;3.10;1.50;;;;;;;19.69;32.29;96499.53;5104537;28;20043;-26
2022/04/16 11:01:07;;;;;;;2.90;1.70;;;;;;;19.53;32.45;96497.38;5107761;28;20027;-26
2022/04/16 13:28:13;;;;;;;4.95;2.95;;;;;;;20.42;34.77;96326.66;4732713;28;20612;-26
2022/04/16 13:37:23;;;;;;;5.53;2.45;;;;;;;20.52;34.92;96314.19;5092601;28;20486;-26
2022/04/16 13:42:41;;;;;;;3.92;2.10;;;;;;;20.49;35.13;96319.94;5105772;28;20072;-25
2022/04/16 13:45:07;;;;;;;2.90;2.60;;;;;;;20.47;35.12;96311.41;5095266;28;20031;-25
2022/04/16 13:47:35;;;;;;;3.63;2.60;;;;;;;20.54;34.88;96316.44;5113334;28;20031;-27
2022/04/16 13:50:00;;;;;;;3.95;2.15;;;;;;;20.55;35.05;96317.94;5113452;28;20106;-26
2022/04/16 13:52:26;;;;;;;2.97;2.20;;;;;;;20.51;35.08;96312.69;5111292;28;20178;-26
2022/04/16 13:54:54;;;;;;;3.15;2.13;;;;;;;20.58;35.04;96303.19;5113113;28;20072;-25
2022/04/16 13:57:20;;;;;;;8.05;2.30;;;;;;;20.63;34.74;96308.72;5113207;28;20050;-26
2022/04/16 13:59:45;;;;;;;4.32;2.25;;;;;;;20.58;34.96;96294.91;5113122;28;20055;-26
2022/04/16 14:02:12;;;;;;;5.85;2.40;;;;;;;20.52;35.20;96302.41;5113000;28;20035;-25
2022/04/16 14:07:21;;;;;;;2.55;1.88;;;;;;;20.47;35.20;96300.38;5113046;28;20093;-26
2022/04/16 14:09:47;;;;;;;5.95;1.95;;;;;;;20.56;34.96;96297.41;5113184;28;20406;-26
2022/04/16 14:12:15;;;;;;;1.92;1.70;;;;;;;20.57;34.95;96307.19;5112859;28;20036;-25
2022/04/16 14:14:42;;;;;;;3.90;1.90;;;;;;;20.57;35.02;96296.16;5113115;28;20027;-26
2022/04/16 14:17:09;;;;;;;2.38;1.63;;;;;;;20.61;34.84;96305.69;5112918;28;20028;-26
2022/04/16 14:19:35;;;;;;;3.17;2.17;;;;;;;20.56;35.04;96305.66;5113205;28;20538;-26
2022/04/16 14:22:00;;;;;;;3.90;2.33;;;;;;;20.52;35.17;96297.66;5112922;28;20027;-26
2022/04/16 14:24:26;;;;;;;3.72;2.10;;;;;;;20.47;35.44;96300.38;5112479;28;20050;-26
2022/04/16 14:26:51;;;;;;;4.97;1.90;;;;;;;20.48;35.38;96307.41;5112421;28;20126;-26
2022/04/16 14:29:17;;;;;;;2.88;1.88;;;;;;;20.64;35.08;96292.94;5112642;28;20390;-26
2022/04/16 14:31:44;;;;;;;2.70;1.58;;;;;;;20.56;35.23;96300.16;5112599;28;20026;-26
2022/04/16 14:34:10;;;;;;;2.92;1.52;;;;;;;20.60;35.24;96292.41;5112835;28;20027;-26
2022/04/16 14:36:37;;;;;;;1.92;1.70;;;;;;;20.42;35.59;96293.59;5112533;28;20427;-26
2022/04/16 14:39:04;;;;;;;2.47;1.60;;;;;;;20.53;35.47;96288.13;5112527;28;20059;-26
2022/04/16 14:41:31;;;;;;;3.30;1.80;;;;;;;20.57;35.60;96299.66;5112372;28;20039;-26
2022/04/16 14:44:05;;;;;;;3.88;2.00;;;;;;;20.55;35.76;96293.13;5110842;28;20087;-26
2022/04/16 14:46:34;;;;;;;2.65;1.83;;;;;;;20.48;36.07;96294.38;5112343;28;20034;-26
2022/04/16 14:49:10;;;;;;;2.88;1.90;;;;;;;20.59;35.91;96290.91;5110916;28;20470;-26
2022/04/16 14:51:43;;;;;;;2.38;1.70;;;;;;;20.56;36.10;96291.88;5110101;28;20030;-26
2022/04/16 14:54:09;;;;;;;;;;;;;;;20.61;36.06;96280.91;5112664;28;20120;-25
2022/04/16 14:56:37;;;;;;;2.40;1.80;;;;;;;20.73;35.84;96287.94;5112086;28;20010;-26
2022/04/16 14:59:04;;;;;;;4.45;2.28;;;;;;;20.66;36.01;96290.41;5111845;28;20497;-25
2022/04/16 15:01:32;;;;;;;3.42;1.60;;;;;;;20.64;36.11;96295.69;5093758;28;20031;-26
2022/04/16 15:04:01;;;;;;;3.63;1.95;;;;;;;20.64;36.28;96298.44;5093316;28;20066;-26
2022/04/16 15:06:27;;;;;;;4.82;1.80;;;;;;;20.60;36.45;96286.91;5111212;28;20028;-26
2022/04/16 15:08:53;;;;;;;5.03;1.80;;;;;;;20.55;36.68;96296.66;5093192;28;20487;-26
2022/04/16 15:11:19;;;;;;;2.95;1.95;;;;;;;20.63;36.59;96305.22;5111169;28;20080;-26
2022/04/16 15:13:44;;;;;;;5.13;1.80;;;;;;;20.73;36.25;96300.97;5108482;28;20391;-26
2022/04/16 15:16:09;;;;;;;4.68;1.80;;;;;;;20.73;36.33;96295.47;5111299;28;20027;-26
2022/04/16 15:18:35;;;;;;;2.95;1.80;;;;;;;20.74;36.39;96296.97;5111586;28;20034;-25
2022/04/16 15:21:22;;;;;;;7.03;3.05;;;;;;;20.64;37.10;96298.44;5070586;28;20024;-26
2022/04/16 15:23:47;;;;;;;4.93;1.80;;;;;;;20.58;36.82;96308.69;5090357;28;20023;-25
2022/04/16 15:26:18;;;;;;;5.30;1.88;;;;;;;20.48;37.07;96304.66;5090771;28;20479;-26
2022/04/16 15:28:47;;;;;;;3.90;1.83;;;;;;;20.60;36.91;96306.19;5090209;28;20048;-25
2022/04/16 15:31:27;;;;;;;3.95;1.83;;;;;;;20.53;37.08;96304.66;5091493;28;20062;-26
2022/04/16 15:33:54;;;;;;;3.58;1.70;;;;;;;20.60;36.84;96306.19;5091486;28;20028;-25
2022/04/16 15:36:19;;;;;;;2.90;1.67;;;;;;;20.56;36.89;96313.94;5091372;28;20032;-26
2022/04/16 15:38:48;;;;;;;4.20;1.77;;;;;;;20.70;36.50;96310.97;5091304;28;20036;-26
2022/04/16 15:41:16;;;;;;;2.40;1.85;;;;;;;20.55;36.85;96317.94;5091167;28;20070;-26
2022/04/16 15:43:45;;;;;;;4.85;2.03;;;;;;;20.48;36.96;96312.91;5090992;28;20035;-26
2022/04/16 15:46:13;;;;;;;3.17;1.90;;;;;;;20.55;36.81;96317.94;5079507;28;20035;-25
2022/04/16 15:48:49;;;;;;;3.35;1.85;;;;;;;20.52;36.76;96318.94;5090517;28;20055;-26
2022/04/16 15:51:25;;;;;;;3.97;1.70;;;;;;;20.53;36.83;96326.69;5088103;28;20056;-26
2022/04/16 15:53:50;;;;;;;3.28;2.05;;;;;;;20.50;36.96;96321.44;5091003;28;20016;-26
2022/04/16 15:56:18;;;;;;;2.60;1.60;;;;;;;20.46;37.02;96310.66;5090773;28;20047;-26
2022/04/16 15:58:43;;;;;;;4.60;2.03;;;;;;;20.46;37.02;96324.41;5089909;28;20095;-26
2022/04/16 16:01:12;;;;;;;2.47;1.80;;;;;;;20.44;37.17;96324.16;5089649;28;20095;-29
2022/04/16 16:03:40;;;;;;;6.63;1.90;;;;;;;20.44;37.20;96333.16;5090216;28;20028;-27
2022/04/16 16:06:09;;;;;;;3.40;1.92;;;;;;;20.48;37.00;96335.69;5072254;28;20024;-26
2022/04/16 16:08:37;;;;;;;3.28;1.67;;;;;;;20.40;37.38;96340.91;5090113;28;20028;-26